createdAt,value
2023-01-25T00:00:23.505Z,99001.44
2023-01-25T00:02:50.100Z,99001.34
2023-01-25T00:05:16.744Z,98972.44
2023-01-25T00:07:43.290Z,98986.28
2023-01-25T00:10:10.388Z,99012.00
2023-01-25T00:12:36.903Z,99025.38
2023-01-25T00:15:03.594Z,98956.69
2023-01-25T00:17:30.181Z,98984.19
2023-01-25T00:19:56.690Z,98985.09
2023-01-25T00:22:23.252Z,98974.53
2023-01-25T00:24:49.788Z,99001.13
2023-01-25T00:27:16.334Z,98907.56
2023-01-25T00:30:20.787Z,99008.31
2023-01-25T00:33:24.716Z,99010.09
2023-01-25T00:35:56.478Z,98977.25
2023-01-25T00:38:30.752Z,98981.84
2023-01-25T00:40:57.726Z,98960.78
2023-01-25T00:43:24.235Z,98955.41
2023-01-25T00:45:50.765Z,98959.31
2023-01-25T00:48:17.366Z,98961.06
2023-01-25T00:50:43.876Z,98962.72
2023-01-25T00:53:10.425Z,98966.38
2023-01-25T00:55:36.950Z,98938.38
2023-01-25T00:58:03.511Z,98969.72
2023-01-25T01:00:30.063Z,98931.13
2023-01-25T01:02:56.732Z,98990.16
2023-01-25T01:05:23.285Z,98936.69
2023-01-25T01:08:08.625Z,98989.47
2023-01-25T01:10:53.812Z,98957.06
2023-01-25T01:13:39.272Z,98986.03
2023-01-25T01:17:02.071Z,98988.59
2023-01-25T01:19:28.572Z,98949.03
2023-01-25T01:21:55.113Z,98945.41
2023-01-25T01:24:21.746Z,98957.81
2023-01-25T01:27:00.551Z,98971.66
2023-01-25T01:29:27.109Z,98951.88
2023-01-25T01:31:54.019Z,98937.41
2023-01-25T01:34:20.648Z,98989.47
2023-01-25T01:36:47.167Z,98974.56
2023-01-25T01:39:13.789Z,98938.56
2023-01-25T01:41:40.304Z,98929.66
2023-01-25T01:44:06.860Z,98956.25
2023-01-25T01:46:37.225Z,98956.78
2023-01-25T01:49:22.357Z,98977.03
2023-01-25T01:51:53.457Z,98944.63
2023-01-25T01:54:38.266Z,98976.03
2023-01-25T01:58:03.746Z,98977.63
2023-01-25T02:00:32.741Z,98951.31
2023-01-25T02:02:59.338Z,98961.97
2023-01-25T02:05:27.949Z,98919.00
2023-01-25T02:07:55.157Z,98955.97
2023-01-25T02:10:21.898Z,98986.78
2023-01-25T02:12:48.678Z,98979.66
2023-01-25T02:15:15.331Z,98943.38
2023-01-25T02:17:42.008Z,98975.94
2023-01-25T02:20:16.012Z,98993.59
2023-01-25T02:22:45.317Z,98976.94
2023-01-25T02:25:13.086Z,98987.31
2023-01-25T02:27:42.361Z,98981.31
2023-01-25T02:30:09.708Z,98973.50
2023-01-25T02:32:36.252Z,98979.66
2023-01-25T02:35:02.864Z,98962.81
2023-01-25T02:37:29.353Z,98938.88
2023-01-25T02:39:55.868Z,98951.31
2023-01-25T02:42:22.354Z,98963.81
2023-01-25T02:44:49.127Z,98949.53
2023-01-25T02:47:15.652Z,98961.16
2023-01-25T02:49:42.187Z,98952.25
2023-01-25T02:52:09.261Z,98894.84
2023-01-25T02:54:35.759Z,98913.34
2023-01-25T02:57:02.624Z,98962.91
2023-01-25T02:59:29.243Z,98963.00
2023-01-25T03:01:55.948Z,98957.06
2023-01-25T03:04:22.984Z,98940.03
2023-01-25T03:06:50.387Z,98963.28
2023-01-25T03:09:16.970Z,98938.75
2023-01-25T03:11:43.569Z,98947.63
2023-01-25T03:14:10.235Z,98931.28
2023-01-25T03:16:36.852Z,98919.56
2023-01-25T03:19:03.428Z,98920.44
2023-01-25T03:21:29.955Z,98896.69
2023-01-25T03:24:01.349Z,98924.03
2023-01-25T03:26:28.145Z,98924.22
2023-01-25T03:28:54.786Z,98970.66
2023-01-25T03:31:21.404Z,98943.00
2023-01-25T03:33:48.616Z,98914.56
2023-01-25T03:36:15.258Z,98927.94
2023-01-25T03:38:41.875Z,98949.78
2023-01-25T03:41:08.920Z,98901.72
2023-01-25T03:43:35.445Z,98875.31
2023-01-25T03:46:01.997Z,98934.22
2023-01-25T03:48:28.780Z,98922.06
2023-01-25T03:50:56.683Z,98930.69
2023-01-25T03:53:30.352Z,98909.56
2023-01-25T03:55:58.750Z,98893.72
2023-01-25T03:58:25.362Z,98928.41
2023-01-25T04:00:52.029Z,98921.97
2023-01-25T04:03:21.481Z,98937.13
2023-01-25T04:05:48.133Z,98911.97
2023-01-25T04:08:14.808Z,98901.59
2023-01-25T04:10:41.342Z,98898.75
2023-01-25T04:13:07.904Z,98906.69
2023-01-25T04:15:34.448Z,98890.16
2023-01-25T04:18:00.946Z,98899.66
2023-01-25T04:20:27.449Z,98928.97
2023-01-25T04:22:53.970Z,98886.53
2023-01-25T04:25:20.521Z,98890.34
2023-01-25T04:27:47.063Z,98930.72
2023-01-25T04:30:13.678Z,98900.19
2023-01-25T04:32:40.289Z,98896.66
2023-01-25T04:35:07.531Z,98890.63
2023-01-25T04:37:34.280Z,98837.13
2023-01-25T04:40:00.854Z,98874.34
2023-01-25T04:42:27.392Z,98906.03
2023-01-25T04:44:53.931Z,98897.31
2023-01-25T04:47:20.489Z,98864.06
2023-01-25T04:49:47.036Z,98863.59
2023-01-25T04:52:13.583Z,98877.19
2023-01-25T04:54:40.159Z,98795.25
2023-01-25T04:57:06.783Z,98871.09
2023-01-25T04:59:33.361Z,98871.91
2023-01-25T05:01:59.987Z,98826.13
2023-01-25T05:04:26.545Z,98904.38
2023-01-25T05:06:53.104Z,98895.56
2023-01-25T05:09:19.747Z,98849.13
2023-01-25T05:11:46.291Z,98853.00
2023-01-25T05:14:12.800Z,98824.03
2023-01-25T05:16:39.351Z,98857.50
2023-01-25T05:19:05.964Z,98843.69
2023-01-25T05:21:51.335Z,98811.84
2023-01-25T05:24:18.002Z,98844.22
2023-01-25T05:27:03.039Z,98782.72
2023-01-25T05:29:37.077Z,98846.03
2023-01-25T05:32:24.025Z,98892.63
2023-01-25T05:34:50.757Z,98854.16
2023-01-25T05:37:19.666Z,98797.91
2023-01-25T05:39:46.288Z,98877.19
2023-01-25T05:42:15.537Z,98845.25
2023-01-25T05:44:42.076Z,98902.00
2023-01-25T05:47:15.576Z,98855.03
2023-01-25T05:49:42.140Z,98831.66
2023-01-25T05:52:15.724Z,98775.97
2023-01-25T05:54:42.545Z,98766.38
2023-01-25T05:57:09.178Z,98843.06
2023-01-25T05:59:35.742Z,98821.28
2023-01-25T06:02:02.282Z,98833.41
2023-01-25T06:04:28.847Z,98862.34
2023-01-25T06:06:55.372Z,98821.88
2023-01-25T06:09:22.527Z,98758.63
2023-01-25T06:11:49.101Z,98832.59
2023-01-25T06:14:15.596Z,98825.41
2023-01-25T06:16:42.213Z,98848.25
2023-01-25T06:19:08.810Z,98827.22
2023-01-25T06:21:37.008Z,98826.09
2023-01-25T06:24:04.608Z,98868.34
2023-01-25T06:26:31.194Z,98828.13
2023-01-25T06:28:57.746Z,98838.41
2023-01-25T06:31:24.366Z,98817.56
2023-01-25T06:33:51.199Z,98828.22
2023-01-25T06:36:18.758Z,98829.09
2023-01-25T06:38:51.033Z,98773.16
2023-01-25T06:41:17.616Z,98838.88
2023-01-25T06:43:44.197Z,98821.09
2023-01-25T06:46:14.183Z,98749.34
2023-01-25T06:48:42.878Z,98773.78
2023-01-25T06:51:11.712Z,98824.88
2023-01-25T06:53:39.908Z,98831.31
2023-01-25T06:56:10.070Z,98839.94
2023-01-25T06:58:37.675Z,98813.72
2023-01-25T07:01:06.135Z,98797.09
2023-01-25T07:03:32.849Z,98808.38
2023-01-25T07:06:09.332Z,98809.41
2023-01-25T07:08:35.985Z,98813.38
2023-01-25T07:11:04.680Z,98806.31
2023-01-25T07:13:31.773Z,98817.13
2023-01-25T07:16:02.856Z,98820.56
2023-01-25T07:18:32.663Z,98832.69
2023-01-25T07:21:03.740Z,98807.28
2023-01-25T07:23:32.061Z,98784.63
2023-01-25T07:25:58.674Z,98811.50
2023-01-25T07:28:25.487Z,98813.63
2023-01-25T07:30:52.012Z,98798.56
2023-01-25T07:33:18.582Z,98835.69
2023-01-25T07:35:45.119Z,98818.81
2023-01-25T07:38:13.352Z,98804.66
2023-01-25T07:40:40.427Z,98800.25
2023-01-25T07:43:07.035Z,98784.78
2023-01-25T07:45:33.645Z,98824.09
2023-01-25T07:48:00.190Z,98815.28
2023-01-25T07:50:27.142Z,98809.22
2023-01-25T07:52:54.086Z,98824.28
2023-01-25T07:55:23.436Z,98803.34
2023-01-25T07:57:49.967Z,98740.22
2023-01-25T08:00:16.818Z,98794.81
2023-01-25T08:02:43.403Z,98739.84
2023-01-25T08:05:10.870Z,98810.38
2023-01-25T08:07:37.676Z,98794.72
2023-01-25T08:10:04.472Z,98802.66
2023-01-25T08:12:31.345Z,98803.53
2023-01-25T08:14:57.857Z,98843.03
2023-01-25T08:17:24.492Z,98803.63
2023-01-25T08:19:51.023Z,98802.56
2023-01-25T08:22:17.593Z,98814.94
2023-01-25T08:24:44.851Z,98809.75
2023-01-25T08:27:11.509Z,98828.75
2023-01-25T08:29:38.057Z,98811.94
2023-01-25T08:32:06.171Z,98798.84
2023-01-25T08:34:32.805Z,98810.09
2023-01-25T08:36:59.299Z,98824.09
2023-01-25T08:39:25.956Z,98815.56
2023-01-25T08:41:52.474Z,98811.94
2023-01-25T08:44:24.036Z,98828.06
2023-01-25T08:46:50.636Z,98755.69
2023-01-25T08:49:17.174Z,98800.91
2023-01-25T08:51:43.739Z,98780.16
2023-01-25T08:54:13.403Z,98781.00
2023-01-25T08:56:40.357Z,98789.81
2023-01-25T08:59:07.210Z,98796.16
2023-01-25T09:01:33.790Z,98807.31
2023-01-25T09:04:00.462Z,98775.75
2023-01-25T09:06:27.098Z,98787.28
2023-01-25T09:08:53.641Z,98802.03
2023-01-25T09:11:21.601Z,98788.25
2023-01-25T09:13:48.836Z,98790.97
2023-01-25T09:16:26.583Z,98780.53
2023-01-25T09:18:53.097Z,98785.78
2023-01-25T09:21:19.679Z,98803.38
2023-01-25T09:24:04.534Z,98762.16
2023-01-25T09:26:32.500Z,98780.69
2023-01-25T09:28:59.316Z,98793.72
2023-01-25T09:31:28.061Z,98818.31
2023-01-25T09:33:54.763Z,98800.81
2023-01-25T09:36:25.907Z,98778.81
2023-01-25T09:38:52.601Z,98761.25
2023-01-25T09:41:43.982Z,98814.91
2023-01-25T09:44:39.634Z,98819.19
2023-01-25T09:47:14.371Z,98787.44
2023-01-25T09:49:56.752Z,98808.13
2023-01-25T09:52:52.603Z,98796.72
2023-01-25T09:55:19.269Z,98771.97
2023-01-25T09:57:45.919Z,98814.91
2023-01-25T10:00:19.285Z,98768.47
2023-01-25T10:02:57.949Z,98796.19
2023-01-25T10:05:27.274Z,98781.25
2023-01-25T10:08:22.220Z,98791.97
2023-01-25T10:10:49.040Z,98762.06
2023-01-25T10:13:17.954Z,98759.59
2023-01-25T10:16:06.464Z,98759.50
2023-01-25T10:18:39.338Z,98769.34
2023-01-25T10:21:21.862Z,98769.63
2023-01-25T10:24:07.057Z,98776.69
2023-01-25T10:26:34.744Z,98755.41
2023-01-25T10:29:28.108Z,98771.56
2023-01-25T10:32:19.560Z,98774.97
2023-01-25T10:34:56.728Z,98736.50
2023-01-25T10:37:27.716Z,98723.41
2023-01-25T10:40:04.519Z,98762.25
2023-01-25T10:42:33.666Z,98721.75
2023-01-25T10:45:00.478Z,98743.97
2023-01-25T10:47:32.073Z,98656.56
2023-01-25T10:49:58.904Z,98704.84
2023-01-25T10:52:26.185Z,98732.19
2023-01-25T10:55:23.576Z,98719.91
2023-01-25T10:57:54.670Z,98711.38
2023-01-25T11:00:37.468Z,98728.34
2023-01-25T11:03:04.249Z,98670.34
2023-01-25T11:05:41.738Z,98701.91
2023-01-25T11:08:38.367Z,98713.06
2023-01-25T11:11:15.307Z,98710.41
2023-01-25T11:13:42.681Z,98637.66
2023-01-25T11:16:37.301Z,98678.97
2023-01-25T11:19:04.040Z,98673.69
2023-01-25T11:21:34.819Z,98644.97
2023-01-25T11:24:05.284Z,98697.75
2023-01-25T11:26:32.684Z,98622.13
2023-01-25T11:29:21.282Z,98670.59
2023-01-25T11:31:49.609Z,98684.13
2023-01-25T11:34:18.111Z,98636.06
2023-01-25T11:37:03.168Z,98674.03
2023-01-25T11:39:55.465Z,98646.78
2023-01-25T11:42:38.454Z,98634.69
2023-01-25T11:45:20.034Z,98661.19
2023-01-25T11:48:08.225Z,98651.38
2023-01-25T11:50:57.825Z,98656.09
2023-01-25T11:53:59.177Z,98650.09
2023-01-25T11:56:56.618Z,98642.47
2023-01-25T11:59:59.795Z,98628.88
2023-01-25T12:02:49.508Z,98628.06
2023-01-25T12:05:34.682Z,98621.22
2023-01-25T12:08:38.661Z,98626.31
2023-01-25T12:11:21.424Z,98621.22
2023-01-25T12:14:15.343Z,98613.56
2023-01-25T12:17:00.492Z,98613.56
2023-01-25T12:19:35.049Z,98564.75
2023-01-25T12:22:16.582Z,98595.75
2023-01-25T12:24:55.285Z,98588.09
2023-01-25T12:27:34.181Z,98577.91
2023-01-25T12:30:27.195Z,98576.22
2023-01-25T12:33:12.909Z,98577.00
2023-01-25T12:35:49.783Z,98546.47
2023-01-25T12:38:20.389Z,98543.50
2023-01-25T12:40:55.875Z,98545.59
2023-01-25T12:43:26.956Z,98536.22
2023-01-25T12:45:53.657Z,98529.41
2023-01-25T12:48:26.244Z,98510.91
2023-01-25T12:50:57.141Z,98520.41
2023-01-25T12:53:29.899Z,98523.47
2023-01-25T12:55:56.496Z,98534.06
2023-01-25T12:58:38.165Z,98542.22
2023-01-25T13:01:16.706Z,98540.44
2023-01-25T13:04:20.632Z,98537.13
2023-01-25T13:06:51.713Z,98497.75
2023-01-25T13:09:33.439Z,98523.50
2023-01-25T13:12:00.723Z,98507.53
2023-01-25T13:14:31.989Z,98419.25
2023-01-25T13:17:11.242Z,98495.94
2023-01-25T13:19:37.717Z,98507.31
2023-01-25T13:22:04.448Z,98438.94
2023-01-25T13:24:32.196Z,98461.13
2023-01-25T13:27:02.936Z,98495.56
2023-01-25T13:29:32.391Z,98496.34
2023-01-25T13:31:59.696Z,98442.16
2023-01-25T13:34:42.473Z,98491.34
2023-01-25T13:37:18.245Z,98487.00
2023-01-25T13:39:48.675Z,98456.19
2023-01-25T13:42:33.723Z,98487.00
2023-01-25T13:45:03.688Z,98458.16
2023-01-25T13:47:40.294Z,98448.78
2023-01-25T13:50:21.674Z,98472.63
2023-01-25T13:52:58.133Z,98471.81
2023-01-25T13:55:24.695Z,98448.88
2023-01-25T13:57:51.604Z,98465.84
2023-01-25T14:00:18.715Z,98428.88
2023-01-25T14:02:47.192Z,98425.53
2023-01-25T14:05:21.233Z,98426.34
2023-01-25T14:07:49.301Z,98424.72
2023-01-25T14:10:24.264Z,98429.22
2023-01-25T14:12:51.635Z,98417.97
2023-01-25T14:15:24.270Z,98462.41
2023-01-25T14:18:14.268Z,98435.25
2023-01-25T14:20:41.513Z,98417.66
2023-01-25T14:23:20.795Z,98468.41
2023-01-25T14:25:47.379Z,98424.66
2023-01-25T14:28:13.940Z,98372.72
2023-01-25T14:30:40.553Z,98436.84
2023-01-25T14:33:22.363Z,98460.75
2023-01-25T14:35:59.888Z,98423.88
2023-01-25T14:38:37.589Z,98422.25
2023-01-25T14:41:14.065Z,98453.97
2023-01-25T14:43:45.653Z,98432.94
2023-01-25T14:46:38.634Z,98453.97
2023-01-25T14:49:26.982Z,98453.97
2023-01-25T14:51:56.548Z,98349.78
2023-01-25T14:54:27.448Z,98409.53
2023-01-25T14:57:05.079Z,98415.59
2023-01-25T14:59:34.543Z,98450.66
2023-01-25T15:02:21.401Z,98447.22
2023-01-25T15:05:11.028Z,98443.78
2023-01-25T15:07:46.223Z,98443.84
2023-01-25T15:10:24.205Z,98411.78
2023-01-25T15:13:13.262Z,98431.03
2023-01-25T15:15:53.754Z,98433.59
2023-01-25T15:18:42.290Z,98432.81
2023-01-25T15:21:10.076Z,98437.03
2023-01-25T15:23:36.589Z,98396.00
2023-01-25T15:26:03.816Z,98427.72
2023-01-25T15:28:34.303Z,98379.44
2023-01-25T15:31:00.942Z,98385.09
2023-01-25T15:33:28.768Z,98369.41
2023-01-25T15:35:55.499Z,98386.16
2023-01-25T15:38:22.546Z,98386.06
2023-01-25T15:40:49.110Z,98363.34
2023-01-25T15:43:16.313Z,98404.78
2023-01-25T15:45:48.048Z,98380.31
2023-01-25T15:48:15.945Z,98282.16
2023-01-25T15:50:42.625Z,98374.91
2023-01-25T15:53:15.843Z,98353.09
2023-01-25T15:55:46.564Z,98392.72
2023-01-25T15:58:16.457Z,98380.47
2023-01-25T16:00:44.705Z,98351.66
2023-01-25T16:03:11.212Z,98379.50
2023-01-25T16:05:37.805Z,98341.06
2023-01-25T16:08:04.509Z,98340.50
2023-01-25T16:10:31.107Z,98336.22
2023-01-25T16:12:57.730Z,98366.78
2023-01-25T16:15:24.300Z,98325.31
2023-01-25T16:17:51.084Z,98248.59
2023-01-25T16:20:19.658Z,98353.03
2023-01-25T16:22:46.277Z,98363.59
2023-01-25T16:25:13.010Z,98315.75
2023-01-25T16:27:39.561Z,98328.81
2023-01-25T16:30:06.830Z,98319.28
2023-01-25T16:32:36.411Z,98323.88
2023-01-25T16:35:02.935Z,98359.75
2023-01-25T16:37:29.423Z,98308.03
2023-01-25T16:39:55.965Z,98323.00
2023-01-25T16:42:22.849Z,98325.94
2023-01-25T16:44:49.542Z,98308.59
2023-01-25T16:47:16.086Z,98295.78
2023-01-25T16:49:42.586Z,98245.81
2023-01-25T16:52:10.449Z,98294.88
2023-01-25T16:54:36.974Z,98294.13
2023-01-25T16:57:15.070Z,98307.88
2023-01-25T16:59:46.630Z,98233.56
2023-01-25T17:02:13.270Z,98322.13
2023-01-25T17:04:39.881Z,98296.81
2023-01-25T17:07:08.436Z,98302.16
2023-01-25T17:09:35.039Z,98324.16
2023-01-25T17:12:01.505Z,98288.13
2023-01-25T17:14:28.032Z,98316.53
2023-01-25T17:16:54.658Z,98288.53
2023-01-25T17:19:21.245Z,98260.84
2023-01-25T17:21:47.939Z,98258.28
2023-01-25T17:24:15.841Z,98267.19
2023-01-25T17:26:42.418Z,98265.38
2023-01-25T17:29:10.188Z,98234.91
2023-01-25T17:31:36.840Z,98261.94
2023-01-25T17:34:05.385Z,98253.28
2023-01-25T17:36:32.103Z,98279.53
2023-01-25T17:39:17.557Z,98235.75
2023-01-25T17:41:44.507Z,98269.03
2023-01-25T17:44:11.541Z,98273.25
2023-01-25T17:46:38.280Z,98256.91
2023-01-25T17:49:06.557Z,98249.91
2023-01-25T17:51:34.151Z,98291.03
2023-01-25T17:54:00.912Z,98247.22
2023-01-25T17:56:27.461Z,98234.19
2023-01-25T17:58:54.187Z,98259.38
2023-01-25T18:01:22.228Z,98269.09
2023-01-25T18:03:49.260Z,98255.09
2023-01-25T18:06:18.071Z,98262.25
2023-01-25T18:08:48.700Z,98156.50
2023-01-25T18:11:20.219Z,98196.31
2023-01-25T18:13:48.952Z,98244.31
2023-01-25T18:16:15.914Z,98200.59
2023-01-25T18:18:42.785Z,98283.38
2023-01-25T18:21:13.933Z,98265.97
2023-01-25T18:23:41.419Z,98159.28
2023-01-25T18:26:11.615Z,98252.34
2023-01-25T18:28:38.509Z,98237.56
2023-01-25T18:31:05.762Z,98220.94
2023-01-25T18:33:35.058Z,98228.25
2023-01-25T18:36:03.936Z,98215.16
2023-01-25T18:38:31.013Z,98182.56
2023-01-25T18:40:57.601Z,98177.59
2023-01-25T18:43:24.344Z,98222.59
2023-01-25T18:45:55.738Z,98214.78
2023-01-25T18:48:30.329Z,98193.88
2023-01-25T18:51:04.057Z,98221.69
2023-01-25T18:53:31.817Z,98156.03
2023-01-25T18:56:07.325Z,98106.31
2023-01-25T18:58:35.228Z,98099.47
2023-01-25T19:01:06.796Z,98202.94
2023-01-25T19:03:33.501Z,98207.38
2023-01-25T19:06:00.298Z,98185.66
2023-01-25T19:08:27.065Z,98198.84
2023-01-25T19:11:00.789Z,98160.38
2023-01-25T19:13:27.531Z,98168.34
2023-01-25T19:16:04.807Z,98117.84
2023-01-25T19:18:32.599Z,98103.81
2023-01-25T19:20:59.273Z,98172.78
2023-01-25T19:23:25.888Z,98173.00
2023-01-25T19:25:53.872Z,98182.03
2023-01-25T19:28:21.627Z,98139.34
2023-01-25T19:30:48.286Z,98064.81
2023-01-25T19:33:14.923Z,98184.91
2023-01-25T19:35:41.472Z,98150.72
2023-01-25T19:38:08.050Z,98128.00
2023-01-25T19:40:37.654Z,98145.34
2023-01-25T19:43:04.414Z,97973.91
2023-01-25T19:45:31.093Z,98183.78
2023-01-25T19:47:57.770Z,98128.56
2023-01-25T19:50:27.578Z,98076.38
2023-01-25T19:52:55.149Z,98149.06
2023-01-25T19:55:21.707Z,98110.44
2023-01-25T19:57:48.195Z,98134.34
2023-01-25T20:00:15.314Z,98130.72
2023-01-25T20:02:42.164Z,98060.78
2023-01-25T20:05:09.557Z,98078.59
2023-01-25T20:07:36.203Z,98153.94
2023-01-25T20:10:02.932Z,98165.09
2023-01-25T20:12:29.737Z,98076.41
2023-01-25T20:14:56.442Z,98096.41
2023-01-25T20:17:23.566Z,98127.94
2023-01-25T20:19:50.540Z,98086.97
2023-01-25T20:22:17.356Z,98124.59
2023-01-25T20:24:44.024Z,98091.31
2023-01-25T20:27:10.581Z,98125.31
2023-01-25T20:29:37.195Z,98136.56
2023-01-25T20:32:05.622Z,98128.09
2023-01-25T20:34:32.220Z,98134.22
2023-01-25T20:37:00.277Z,98099.34
2023-01-25T20:39:26.792Z,98105.69
2023-01-25T20:41:53.767Z,98100.59
2023-01-25T20:44:21.233Z,98088.63
2023-01-25T20:46:48.050Z,98095.50
2023-01-25T20:49:16.003Z,98056.34
2023-01-25T20:51:42.900Z,98064.28
2023-01-25T20:54:09.464Z,98098.41
2023-01-25T20:56:36.041Z,98075.13
2023-01-25T20:59:02.620Z,98074.25
2023-01-25T21:01:30.599Z,98077.88
2023-01-25T21:03:57.831Z,98060.53
2023-01-25T21:06:24.970Z,98091.00
2023-01-25T21:08:51.488Z,98050.00
2023-01-25T21:11:18.096Z,98023.16
2023-01-25T21:13:44.753Z,98060.75
2023-01-25T21:16:16.082Z,97989.13
2023-01-25T21:18:44.872Z,98084.56
2023-01-25T21:21:13.173Z,98013.97
2023-01-25T21:23:44.802Z,98031.59
2023-01-25T21:26:14.586Z,98070.91
2023-01-25T21:28:41.910Z,98055.25
2023-01-25T21:31:08.947Z,98076.44
2023-01-25T21:33:36.672Z,97989.69
2023-01-25T21:36:04.510Z,98044.97
2023-01-25T21:38:31.086Z,97992.53
2023-01-25T21:41:01.974Z,98005.84
2023-01-25T21:43:28.662Z,98018.34
2023-01-25T21:46:25.359Z,98015.56
2023-01-25T21:49:11.840Z,98019.44
2023-01-25T21:51:49.226Z,98003.59
2023-01-25T21:54:23.215Z,98012.44
2023-01-25T21:56:50.769Z,97990.91
2023-01-25T21:59:17.447Z,97997.69
2023-01-25T22:01:44.202Z,98035.22
2023-01-25T22:04:11.177Z,98007.41
2023-01-25T22:06:37.808Z,97996.94
2023-01-25T22:09:04.595Z,97997.06
2023-01-25T22:11:31.140Z,97978.81
2023-01-25T22:13:57.733Z,97994.59
2023-01-25T22:16:24.256Z,98033.78
2023-01-25T22:18:50.927Z,97970.34
2023-01-25T22:21:30.692Z,97999.06
2023-01-25T22:23:57.869Z,97950.38
2023-01-25T22:26:24.904Z,97984.28
2023-01-25T22:28:56.280Z,97953.13
2023-01-25T22:31:27.287Z,97911.19
2023-01-25T22:33:54.308Z,97961.00
2023-01-25T22:36:21.836Z,97979.47
2023-01-25T22:38:48.511Z,97951.69
2023-01-25T22:41:16.904Z,97967.47
2023-01-25T22:43:43.520Z,97980.34
2023-01-25T22:46:14.738Z,98005.84
2023-01-25T22:48:41.417Z,97983.84
2023-01-25T22:51:12.826Z,97993.56
2023-01-25T22:53:39.312Z,97973.59
2023-01-25T22:56:07.660Z,97982.41
2023-01-25T22:58:35.430Z,97972.09
2023-01-25T23:01:02.260Z,97970.56
2023-01-25T23:03:28.813Z,97955.75
2023-01-25T23:06:06.415Z,97948.88
2023-01-25T23:08:33.871Z,97943.72
2023-01-25T23:11:01.653Z,97947.16
2023-01-25T23:13:28.491Z,97961.19
2023-01-25T23:15:55.527Z,97931.66
2023-01-25T23:18:41.168Z,97951.72
2023-01-25T23:21:07.760Z,97853.84
2023-01-25T23:23:34.413Z,97837.75
2023-01-25T23:26:03.810Z,97898.81
2023-01-25T23:28:30.506Z,97945.69
2023-01-25T23:31:11.291Z,97922.28
2023-01-25T23:33:38.252Z,97903.91
2023-01-25T23:36:12.245Z,97848.91
2023-01-25T23:38:38.753Z,97908.19
2023-01-25T23:41:05.766Z,97898.66
2023-01-25T23:43:32.448Z,97950.25
2023-01-25T23:45:59.104Z,97854.06
2023-01-25T23:48:25.781Z,97881.84
2023-01-25T23:50:52.680Z,97917.97
2023-01-25T23:53:19.636Z,97915.00
2023-01-25T23:55:56.485Z,97922.91
2023-01-25T23:58:23.606Z,97807.03
